createdAt,value
2023-04-16T13:29:23.870Z,16.67
2023-04-16T13:31:50.835Z,16.75
2023-04-16T13:34:17.945Z,20.35
2023-04-16T13:36:48.473Z,19.95
2023-04-16T13:39:16.006Z,17.73
2023-04-16T13:41:42.793Z,14.70
2023-04-16T13:44:09.634Z,15.38
2023-04-16T13:46:36.513Z,16.30
2023-04-16T13:49:04.226Z,13.52
2023-04-16T13:51:32.296Z,16.63
2023-04-16T13:53:59.217Z,11.73
2023-04-16T13:56:26.128Z,12.55
2023-04-16T13:58:53.076Z,14.23
2023-04-16T14:01:20.165Z,15.80
2023-04-16T14:03:47.099Z,15.10
2023-04-16T14:06:15.226Z,14.43
2023-04-16T14:08:42.143Z,12.90
2023-04-16T14:11:09.433Z,16.88
2023-04-16T14:13:36.939Z,11.07
2023-04-16T14:16:04.154Z,13.98
2023-04-16T14:18:31.028Z,13.67
2023-04-16T14:20:58.802Z,14.23
2023-04-16T14:23:26.789Z,11.80
2023-04-16T14:25:54.005Z,14.50
2023-04-16T14:28:21.082Z,11.27
2023-04-16T14:30:47.979Z,12.80
2023-04-16T14:33:14.846Z,16.13
2023-04-16T14:35:41.804Z,13.32
2023-04-16T14:38:08.891Z,12.50
2023-04-16T14:40:36.010Z,15.02
2023-04-16T14:43:02.905Z,13.63
2023-04-16T14:45:31.033Z,13.45
2023-04-16T14:47:58.042Z,15.70
2023-04-16T14:50:25.166Z,13.02
2023-04-16T14:52:53.894Z,12.40
2023-04-16T14:55:21.533Z,17.30
2023-04-16T14:57:48.357Z,13.93
2023-04-16T15:00:17.740Z,11.98
2023-04-16T15:02:46.324Z,11.68
2023-04-16T15:05:13.244Z,14.02
2023-04-16T15:07:40.158Z,11.67
2023-04-16T15:10:09.277Z,13.00
2023-04-16T15:12:36.153Z,11.63
2023-04-16T15:15:03.087Z,14.07
2023-04-16T15:17:29.984Z,11.43
2023-04-16T15:19:56.954Z,13.63
2023-04-16T15:22:23.923Z,12.32
2023-04-16T15:24:51.031Z,11.88
2023-04-16T15:27:18.225Z,10.02
2023-04-16T15:29:49.663Z,12.23
2023-04-16T15:32:16.812Z,12.93
2023-04-16T15:34:43.718Z,11.55
2023-04-16T15:37:10.932Z,10.95
2023-04-16T15:39:37.809Z,10.77
2023-04-16T15:42:07.402Z,12.38
2023-04-16T15:44:34.962Z,12.50
2023-04-16T15:47:01.854Z,14.77
2023-04-16T15:49:28.805Z,13.48
2023-04-16T15:51:56.220Z,15.00
2023-04-16T15:54:23.565Z,13.15
2023-04-16T15:56:51.445Z,15.33
2023-04-16T15:59:18.331Z,13.82
2023-04-16T16:01:45.130Z,21.02
2023-04-16T16:04:12.000Z,18.38
2023-04-16T16:06:38.980Z,13.40
2023-04-16T16:09:06.659Z,14.27
2023-04-16T16:11:33.684Z,12.32
2023-04-16T16:14:03.729Z,14.65
2023-04-16T16:16:31.053Z,12.35
2023-04-16T16:18:57.957Z,14.43
2023-04-16T16:21:24.755Z,15.40
2023-04-16T16:23:51.843Z,14.68
2023-04-16T16:26:18.824Z,17.02
2023-04-16T16:28:46.126Z,16.60
2023-04-16T16:31:12.994Z,15.07
2023-04-16T16:33:40.532Z,16.03
2023-04-16T16:36:10.941Z,17.33
2023-04-16T16:38:38.269Z,18.33
2023-04-16T16:41:05.095Z,15.25
2023-04-16T16:43:31.920Z,18.08
2023-04-16T16:45:58.695Z,13.60
2023-04-16T16:48:25.761Z,16.42
2023-04-16T16:50:52.570Z,18.95
2023-04-16T16:53:19.426Z,19.45
2023-04-16T16:55:46.479Z,16.27
2023-04-16T16:58:13.291Z,18.77
2023-04-16T17:00:40.468Z,16.55
2023-04-16T17:03:09.164Z,15.45
2023-04-16T17:05:36.862Z,14.98
2023-04-16T17:08:03.905Z,14.80
2023-04-16T17:10:30.781Z,18.10
2023-04-16T17:12:57.660Z,13.95
2023-04-16T17:15:24.730Z,16.70
2023-04-16T17:17:51.870Z,15.68
2023-04-16T17:20:20.051Z,15.00
2023-04-16T17:22:47.032Z,14.87
2023-04-16T17:25:13.997Z,15.45
2023-04-16T17:27:40.956Z,16.83
2023-04-16T17:30:08.431Z,16.55
2023-04-16T17:32:35.354Z,18.40
2023-04-16T17:35:04.501Z,11.87
2023-04-16T17:37:31.589Z,19.65
2023-04-16T17:39:58.458Z,17.23
2023-04-16T17:42:25.644Z,13.48
2023-04-16T17:44:52.614Z,19.02
2023-04-16T17:47:19.551Z,17.23
2023-04-16T17:49:46.481Z,17.80
2023-04-16T17:52:13.351Z,14.68
2023-04-16T17:54:40.189Z,17.83
2023-04-16T17:57:06.945Z,15.15
2023-04-16T17:59:33.691Z,14.57
2023-04-16T18:02:00.895Z,17.83
2023-04-16T18:04:28.085Z,15.98
2023-04-16T18:06:55.160Z,17.90
2023-04-16T18:09:22.047Z,14.68
2023-04-16T18:11:49.016Z,15.83
2023-04-16T18:14:20.030Z,15.57
2023-04-16T18:16:49.883Z,17.65
2023-04-16T18:19:16.999Z,16.25
2023-04-16T18:21:44.256Z,17.48
2023-04-16T18:24:11.388Z,17.43
2023-04-16T18:26:40.755Z,24.77
2023-04-16T18:29:08.195Z,18.08
2023-04-16T18:31:36.013Z,16.42
2023-04-16T18:34:03.048Z,22.30
2023-04-16T18:36:29.979Z,21.13
2023-04-16T18:39:15.895Z,19.80
2023-04-16T18:41:43.757Z,20.15
2023-04-16T18:44:13.353Z,19.55
2023-04-16T18:46:40.283Z,21.20
2023-04-16T18:49:07.214Z,19.03
2023-04-16T18:51:34.037Z,19.83
2023-04-16T18:54:00.952Z,19.13
2023-04-16T18:56:29.927Z,21.10
2023-04-16T18:58:56.707Z,21.88
2023-04-16T19:01:23.672Z,21.43
2023-04-16T19:03:50.798Z,23.10
2023-04-16T19:06:17.702Z,22.15
2023-04-16T19:08:44.507Z,19.92
2023-04-16T19:11:11.356Z,20.83
2023-04-16T19:13:39.372Z,22.77
2023-04-16T19:16:11.434Z,23.48
2023-04-16T19:18:38.976Z,20.17
2023-04-16T19:21:07.102Z,21.45
2023-04-16T19:23:34.038Z,19.75
2023-04-16T19:26:01.659Z,21.03
2023-04-16T19:28:28.799Z,23.63
2023-04-16T19:30:56.173Z,19.58
2023-04-16T19:33:23.107Z,20.30
2023-04-16T19:35:50.030Z,18.75
2023-04-16T19:38:16.858Z,21.67
2023-04-16T19:40:45.580Z,20.83
2023-04-16T19:43:12.826Z,19.75
2023-04-16T19:45:53.692Z,19.25
2023-04-16T19:48:21.615Z,20.45
2023-04-16T19:50:48.701Z,21.37
2023-04-16T19:53:17.339Z,19.75
2023-04-16T19:55:44.293Z,18.23
2023-04-16T19:58:11.186Z,21.75
2023-04-16T20:00:40.972Z,23.40
2023-04-16T20:03:07.907Z,22.83
2023-04-16T20:05:34.932Z,24.45
2023-04-16T20:08:01.758Z,21.30
2023-04-16T20:10:29.398Z,21.88
2023-04-16T20:12:56.551Z,19.48
2023-04-16T20:15:23.398Z,20.37
2023-04-16T20:17:50.259Z,22.75
2023-04-16T20:20:17.217Z,20.23
2023-04-16T20:22:44.053Z,21.63
2023-04-16T20:25:11.659Z,20.17
2023-04-16T20:27:38.618Z,22.30
2023-04-16T20:30:06.495Z,23.58
2023-04-16T20:32:33.525Z,21.92
2023-04-16T20:35:00.408Z,21.15
2023-04-16T20:37:29.246Z,22.25
2023-04-16T20:39:56.482Z,23.17
2023-04-16T20:42:26.519Z,25.92
2023-04-16T20:44:56.735Z,22.38
2023-04-16T20:47:23.977Z,25.85
2023-04-16T20:49:52.995Z,21.73
2023-04-16T20:52:20.043Z,22.03
2023-04-16T20:54:47.870Z,25.73
2023-04-16T20:57:14.832Z,23.63
2023-04-16T20:59:41.785Z,27.30
2023-04-16T21:02:08.784Z,25.27
2023-04-16T21:04:36.120Z,22.17
2023-04-16T21:07:04.357Z,24.50
2023-04-16T21:09:31.735Z,23.25
2023-04-16T21:11:58.599Z,24.98
2023-04-16T21:14:25.424Z,22.75
2023-04-16T21:16:52.256Z,22.40
2023-04-16T21:19:19.082Z,26.52
2023-04-16T21:21:45.996Z,27.80
2023-04-16T21:24:12.862Z,19.92
2023-04-16T21:26:39.639Z,21.23
2023-04-16T21:29:06.465Z,24.90
2023-04-16T21:31:33.282Z,21.83
2023-04-16T21:34:00.112Z,22.20
2023-04-16T21:36:27.846Z,20.95
2023-04-16T21:38:55.046Z,22.67
2023-04-16T21:41:21.880Z,21.37
2023-04-16T21:43:48.716Z,22.17
2023-04-16T21:46:15.548Z,24.35
2023-04-16T21:48:42.322Z,24.13
2023-04-16T21:51:10.216Z,26.05
2023-04-16T21:53:39.176Z,25.93
2023-04-16T21:56:06.798Z,21.30
2023-04-16T21:58:33.534Z,22.58
2023-04-16T22:01:00.371Z,19.15
2023-04-16T22:03:28.221Z,23.23
2023-04-16T22:06:01.136Z,24.27
2023-04-16T22:08:29.580Z,22.85
2023-04-16T22:11:01.706Z,23.48
2023-04-16T22:13:32.572Z,22.40
2023-04-16T22:16:02.981Z,21.30
2023-04-16T22:18:33.167Z,25.53
2023-04-16T22:21:00.209Z,23.52
2023-04-16T22:23:27.206Z,28.80
2023-04-16T22:25:55.619Z,25.02
2023-04-16T22:28:22.905Z,25.33
2023-04-16T22:30:50.249Z,27.20
2023-04-16T22:33:17.120Z,21.92
2023-04-16T22:35:43.988Z,25.92
2023-04-16T22:38:10.904Z,28.00
2023-04-16T22:40:37.776Z,26.65
2023-04-16T22:43:05.102Z,24.80
2023-04-16T22:45:31.972Z,23.85
2023-04-16T22:47:59.082Z,22.92
2023-04-16T22:50:26.143Z,25.20
2023-04-16T22:52:52.900Z,25.05
2023-04-16T22:55:19.750Z,27.70
2023-04-16T22:57:47.655Z,28.17
2023-04-16T23:00:18.031Z,25.90
2023-04-16T23:02:45.464Z,29.25
2023-04-16T23:05:12.563Z,28.05
2023-04-16T23:07:39.402Z,28.57
2023-04-16T23:10:08.629Z,27.92
2023-04-16T23:12:37.631Z,31.85
2023-04-16T23:15:06.852Z,29.10
2023-04-16T23:17:35.281Z,29.63
2023-04-16T23:20:02.551Z,26.93
2023-04-16T23:22:29.604Z,25.10
2023-04-16T23:24:56.554Z,26.20
2023-04-16T23:27:23.393Z,31.05
2023-04-16T23:29:50.327Z,33.08
2023-04-16T23:32:17.248Z,26.77
2023-04-16T23:34:44.153Z,29.92
2023-04-16T23:37:10.976Z,30.15
2023-04-16T23:39:37.804Z,28.45
2023-04-16T23:42:04.727Z,31.27
2023-04-16T23:44:31.753Z,27.03
2023-04-16T23:46:58.711Z,26.05
2023-04-16T23:49:25.701Z,28.15
2023-04-16T23:51:52.776Z,25.35
2023-04-16T23:54:19.709Z,26.77
2023-04-16T23:56:46.677Z,26.17
2023-04-16T23:59:14.073Z,26.15
